Time;durP1;ratioP1;P1;durP2;ratioP2;P2;SDS_P1;SDS_P2;PMS_P1;PMS_P2;Temp;Humidity;BMP_temperature;BMP_pressure;BME280_temperature;BME280_humidity;BME280_pressure;Samples;Min_cycle;Max_cycle;Signal;HPM_P1;HPM_P2
2020/12/18 00:01:11;;;;;;;13.43;6.60;;;;;;;;;;5107954;28;20046;-66
2020/12/18 00:03:38;;;;;;;10.73;6.10;;;;;;;;;;5109251;28;20020;-66
2020/12/18 00:06:04;;;;;;;12.05;6.25;;;;;;;;;;5109230;28;20024;-66
2020/12/18 00:08:30;;;;;;;10.73;5.68;;;;;;;;;;5109252;28;20050;-66
2020/12/18 00:10:56;;;;;;;12.88;5.55;;;;;;;;;;5107709;28;20064;-66
2020/12/18 00:13:23;;;;;;;7.85;5.10;;;;;;;;;;5109041;28;20028;-67
2020/12/18 00:15:49;;;;;;;8.45;5.13;;;;;;;;;;5109274;28;20039;-66
2020/12/18 00:18:15;;;;;;;8.60;5.97;;;;;;;;;;5109011;28;20031;-67
2020/12/18 00:20:41;;;;;;;9.73;5.43;;;;;;;;;;5109009;28;20032;-66
2020/12/18 00:23:07;;;;;;;8.52;4.68;;;;;;;;;;5098489;28;20125;-67
2020/12/18 00:25:33;;;;;;;9.60;5.80;;;;;;;;;;5097839;28;20050;-68
2020/12/18 00:27:59;;;;;;;8.32;5.32;;;;;;;;;;5094098;28;20028;-67
2020/12/18 00:30:25;;;;;;;15.73;6.43;;;;;;;;;;5095216;28;20040;-67
2020/12/18 00:32:51;;;;;;;11.32;5.63;;;;;;;;;;5095302;28;20036;-67
2020/12/18 00:35:19;;;;;;;9.02;5.53;;;;;;;;;;5095239;28;20012;-64
2020/12/18 00:37:45;;;;;;;8.98;4.85;;;;;;;;;;5093763;28;20032;-67
2020/12/18 00:40:11;;;;;;;8.05;4.80;;;;;;;;;;5095263;28;20249;-66
2020/12/18 00:42:37;;;;;;;8.98;5.30;;;;;;;;;;5094952;28;20129;-67
2020/12/18 00:45:03;;;;;;;6.63;4.38;;;;;;;;;;5094895;28;20049;-67
2020/12/18 00:47:29;;;;;;;9.27;4.85;;;;;;;;;;5095186;28;20024;-66
2020/12/18 00:49:55;;;;;;;7.07;4.85;;;;;;;;;;5094977;28;20376;-66
2020/12/18 00:52:24;;;;;;;6.05;4.32;;;;;;;;;;5094850;28;20035;-66
2020/12/18 00:54:50;;;;;;;;;;;;;;;;;;5093837;28;20380;-67
2020/12/18 00:57:16;;;;;;;6.68;4.43;;;;;;;;;;5094865;28;19904;-66
2020/12/18 00:59:42;;;;;;;7.35;4.50;;;;;;;;;;5094882;28;20032;-66
2020/12/18 01:02:08;;;;;;;9.15;4.28;;;;;;;;;;5094965;28;20024;-66
2020/12/18 01:04:34;;;;;;;6.25;3.92;;;;;;;;;;5094421;28;20028;-66
2020/12/18 01:07:00;;;;;;;5.50;3.97;;;;;;;;;;5094710;28;20081;-66
2020/12/18 01:09:27;;;;;;;6.32;4.00;;;;;;;;;;5094401;28;20020;-67
2020/12/18 01:11:53;;;;;;;8.77;4.10;;;;;;;;;;5092925;28;20134;-67
2020/12/18 01:14:20;;;;;;;7.55;4.65;;;;;;;;;;5094530;28;20051;-67
2020/12/18 01:16:50;;;;;;;6.80;4.22;;;;;;;;;;5094401;28;20026;-67
2020/12/18 01:19:16;;;;;;;10.00;5.57;;;;;;;;;;5094355;28;20107;-67
2020/12/18 01:21:42;;;;;;;7.30;4.75;;;;;;;;;;5094398;28;20097;-66
2020/12/18 01:24:08;;;;;;;8.30;4.80;;;;;;;;;;5094185;28;20032;-67
2020/12/18 01:26:34;;;;;;;7.20;4.40;;;;;;;;;;5094145;28;20024;-67
2020/12/18 01:29:00;;;;;;;8.50;4.97;;;;;;;;;;5094177;28;20024;-66
2020/12/18 01:31:26;;;;;;;8.63;4.97;;;;;;;;;;5093960;28;20036;-67
2020/12/18 01:33:52;;;;;;;8.40;5.05;;;;;;;;;;5093047;28;20023;-66
2020/12/18 01:36:21;;;;;;;10.40;5.60;;;;;;;;;;5093788;28;20372;-66
2020/12/18 01:38:47;;;;;;;;;;;;;;;;;;5094340;28;20020;-65
2020/12/18 01:41:13;;;;;;;7.80;4.57;;;;;;;;;;5094243;28;19999;-65
2020/12/18 01:43:39;;;;;;;11.07;5.68;;;;;;;;;;5093956;28;20077;-65
2020/12/18 01:46:15;;;;;;;7.97;5.47;;;;;;;;;;5093754;28;20024;-65
2020/12/18 01:48:42;;;;;;;7.72;4.85;;;;;;;;;;5093814;28;20380;-65
2020/12/18 01:51:12;;;;;;;9.52;4.60;;;;;;;;;;5093604;28;20040;-65
2020/12/18 01:53:43;;;;;;;9.93;5.05;;;;;;;;;;5092260;28;20031;-65
2020/12/18 01:56:09;;;;;;;7.90;4.85;;;;;;;;;;5092668;28;20060;-64
2020/12/18 01:58:37;;;;;;;10.13;5.75;;;;;;;;;;5093574;28;20028;-65
2020/12/18 02:01:09;;;;;;;9.95;6.15;;;;;;;;;;5093606;28;20056;-66
2020/12/18 02:03:36;;;;;;;9.48;5.25;;;;;;;;;;5093511;28;20103;-66
2020/12/18 02:06:15;;;;;;;7.50;4.90;;;;;;;;;;5093395;28;20032;-67
2020/12/18 02:08:42;;;;;;;8.80;5.80;;;;;;;;;;5093425;28;20028;-65
2020/12/18 02:11:10;;;;;;;9.80;5.18;;;;;;;;;;5093068;28;20051;-66
2020/12/18 02:13:36;;;;;;;10.73;5.60;;;;;;;;;;5093473;28;20052;-66
2020/12/18 02:16:02;;;;;;;9.20;5.47;;;;;;;;;;5092021;28;20325;-66
2020/12/18 02:18:28;;;;;;;7.97;5.15;;;;;;;;;;5091870;28;20039;-66
2020/12/18 02:20:55;;;;;;;10.20;5.18;;;;;;;;;;5093244;28;20028;-66
2020/12/18 02:23:21;;;;;;;8.70;4.97;;;;;;;;;;5093016;28;20372;-66
2020/12/18 02:26:01;;;;;;;8.23;4.85;;;;;;;;;;5091894;28;20039;-65
2020/12/18 02:28:27;;;;;;;7.10;4.32;;;;;;;;;;5093182;28;20032;-65
2020/12/18 02:30:54;;;;;;;6.72;4.40;;;;;;;;;;5092935;28;20047;-65
2020/12/18 02:33:20;;;;;;;7.53;4.82;;;;;;;;;;5092922;28;20364;-65
2020/12/18 02:35:46;;;;;;;8.68;5.20;;;;;;;;;;5093288;28;20424;-66
2020/12/18 02:38:12;;;;;;;7.07;4.57;;;;;;;;;;5092823;28;20376;-66
2020/12/18 02:40:38;;;;;;;6.63;4.07;;;;;;;;;;5092943;28;20081;-66
2020/12/18 02:43:04;;;;;;;6.80;4.50;;;;;;;;;;5092789;28;20032;-66
2020/12/18 02:45:30;;;;;;;6.80;4.38;;;;;;;;;;5092555;28;20024;-64
2020/12/18 02:47:56;;;;;;;6.00;4.30;;;;;;;;;;5092743;28;20031;-65
2020/12/18 02:50:22;;;;;;;7.07;3.95;;;;;;;;;;5092569;28;20032;-65
2020/12/18 02:52:48;;;;;;;6.00;4.32;;;;;;;;;;5092808;28;20036;-65
2020/12/18 02:55:14;;;;;;;7.10;4.15;;;;;;;;;;5092806;28;20024;-65
2020/12/18 02:57:40;;;;;;;7.22;3.85;;;;;;;;;;5098371;28;20024;-66
2020/12/18 03:00:06;;;;;;;8.85;4.35;;;;;;;;;;5096052;28;20055;-66
2020/12/18 03:02:33;;;;;;;7.30;3.88;;;;;;;;;;5092656;28;20062;-65
2020/12/18 03:04:59;;;;;;;8.02;4.32;;;;;;;;;;5092556;28;20073;-66
2020/12/18 03:07:25;;;;;;;6.80;3.90;;;;;;;;;;5091365;28;20032;-66
2020/12/18 03:09:51;;;;;;;6.03;3.78;;;;;;;;;;5092344;28;20035;-64
2020/12/18 03:12:17;;;;;;;8.10;3.85;;;;;;;;;;5092611;28;20056;-64
2020/12/18 03:14:43;;;;;;;6.80;3.75;;;;;;;;;;5092395;28;20028;-64
2020/12/18 03:17:09;;;;;;;5.95;4.35;;;;;;;;;;5092509;28;20412;-64
2020/12/18 03:19:35;;;;;;;8.30;3.80;;;;;;;;;;5091016;28;20024;-63
2020/12/18 03:22:01;;;;;;;6.95;3.72;;;;;;;;;;5092238;28;20161;-63
2020/12/18 03:24:27;;;;;;;7.07;3.60;;;;;;;;;;5092334;28;20379;-64
2020/12/18 03:26:53;;;;;;;9.02;3.60;;;;;;;;;;5092206;28;20105;-63
2020/12/18 03:29:19;;;;;;;5.60;3.70;;;;;;;;;;5092168;28;20043;-63
2020/12/18 03:31:46;;;;;;;5.20;3.42;;;;;;;;;;5090765;28;20036;-63
2020/12/18 03:34:12;;;;;;;7.65;4.00;;;;;;;;;;5092191;28;20442;-64
2020/12/18 03:36:38;;;;;;;7.78;3.92;;;;;;;;;;5092211;28;20016;-64
2020/12/18 03:39:08;;;;;;;6.43;3.80;;;;;;;;;;5091927;28;20024;-64
2020/12/18 03:41:34;;;;;;;5.38;3.90;;;;;;;;;;5092130;28;20378;-64
2020/12/18 03:44:00;;;;;;;5.65;3.90;;;;;;;;;;5090932;28;20043;-64
2020/12/18 03:46:26;;;;;;;6.45;3.72;;;;;;;;;;5092068;28;20043;-65
2020/12/18 03:48:53;;;;;;;5.45;3.35;;;;;;;;;;5092131;28;20054;-65
2020/12/18 03:51:20;;;;;;;5.65;3.75;;;;;;;;;;5090616;28;20039;-64
2020/12/18 03:53:46;;;;;;;7.30;4.05;;;;;;;;;;5092045;28;20028;-64
2020/12/18 03:56:12;;;;;;;5.28;3.90;;;;;;;;;;5092060;28;20496;-64
2020/12/18 03:58:38;;;;;;;5.82;3.60;;;;;;;;;;5095481;28;20560;-64
2020/12/18 04:01:04;;;;;;;5.88;3.70;;;;;;;;;;5095992;28;20498;-63
2020/12/18 04:03:30;;;;;;;8.00;4.30;;;;;;;;;;5095806;28;20051;-64
2020/12/18 04:05:56;;;;;;;6.43;4.43;;;;;;;;;;5095656;28;20031;-64
2020/12/18 04:08:23;;;;;;;5.50;3.95;;;;;;;;;;5095721;28;20081;-64
2020/12/18 04:10:49;;;;;;;5.57;3.25;;;;;;;;;;5095408;28;20043;-64
2020/12/18 04:13:15;;;;;;;5.30;3.40;;;;;;;;;;5095776;28;20024;-64
2020/12/18 04:15:42;;;;;;;6.05;3.50;;;;;;;;;;5096211;28;20020;-64
2020/12/18 04:18:09;;;;;;;6.05;3.70;;;;;;;;;;5095598;28;20032;-64
2020/12/18 04:20:35;;;;;;;7.55;3.75;;;;;;;;;;5094472;28;20028;-64
2020/12/18 04:23:02;;;;;;;4.88;3.58;;;;;;;;;;5094489;28;20063;-64
2020/12/18 04:25:28;;;;;;;6.00;3.70;;;;;;;;;;5095445;28;20103;-64
2020/12/18 04:27:54;;;;;;;6.45;3.38;;;;;;;;;;5094097;28;20051;-64
2020/12/18 04:30:20;;;;;;;6.22;3.55;;;;;;;;;;5095207;28;20379;-64
2020/12/18 04:32:46;;;;;;;6.18;3.63;;;;;;;;;;5095146;28;20035;-64
2020/12/18 04:35:12;;;;;;;6.35;4.20;;;;;;;;;;5093921;28;20070;-63
2020/12/18 04:37:38;;;;;;;5.90;3.90;;;;;;;;;;5093812;28;20479;-64
2020/12/18 04:40:04;;;;;;;7.28;4.10;;;;;;;;;;5095104;28;20031;-64
2020/12/18 04:42:34;;;;;;;7.05;3.85;;;;;;;;;;5093639;28;20389;-65
2020/12/18 04:45:04;;;;;;;5.93;3.65;;;;;;;;;;5094874;28;20024;-65
2020/12/18 04:47:32;;;;;;;4.13;3.22;;;;;;;;;;5095066;28;20057;-65
2020/12/18 04:49:59;;;;;;;7.10;3.95;;;;;;;;;;5093666;28;20024;-65
2020/12/18 04:52:30;;;;;;;5.82;3.35;;;;;;;;;;5094109;28;20024;-64
2020/12/18 04:54:58;;;;;;;6.28;4.13;;;;;;;;;;5092830;28;20498;-64
2020/12/18 04:57:24;;;;;;;;;;;;;;;;;;5095432;28;20031;-65
2020/12/18 04:59:50;;;;;;;4.97;3.30;;;;;;;;;;5094852;28;19904;-65
2020/12/18 05:02:18;;;;;;;8.05;4.43;;;;;;;;;;5094847;28;20467;-65
2020/12/18 05:04:44;;;;;;;6.10;3.90;;;;;;;;;;5094958;28;20052;-65
2020/12/18 05:07:10;;;;;;;6.10;3.85;;;;;;;;;;5094553;28;20020;-66
2020/12/18 05:09:36;;;;;;;6.90;4.00;;;;;;;;;;5094178;28;20480;-66
2020/12/18 05:12:09;;;;;;;5.70;4.00;;;;;;;;;;5092862;28;20096;-66
2020/12/18 05:14:35;;;;;;;7.60;4.55;;;;;;;;;;5094514;28;20372;-65
2020/12/18 05:17:07;;;;;;;6.07;4.03;;;;;;;;;;5094420;28;20021;-66
2020/12/18 05:19:41;;;;;;;7.35;4.38;;;;;;;;;;5093048;28;20058;-64
2020/12/18 05:22:07;;;;;;;8.60;3.92;;;;;;;;;;5094327;28;20024;-65
2020/12/18 05:24:34;;;;;;;6.43;3.88;;;;;;;;;;5094172;28;20031;-65
2020/12/18 05:27:01;;;;;;;6.50;4.40;;;;;;;;;;5092940;28;20055;-66
2020/12/18 05:29:27;;;;;;;8.27;4.53;;;;;;;;;;5093143;28;20032;-65
2020/12/18 05:31:57;;;;;;;7.85;4.13;;;;;;;;;;5094961;28;20053;-65
2020/12/18 05:34:23;;;;;;;6.90;4.15;;;;;;;;;;5094565;28;20408;-66
2020/12/18 05:36:50;;;;;;;5.53;3.72;;;;;;;;;;5094048;28;20103;-64
2020/12/18 05:39:16;;;;;;;7.68;4.05;;;;;;;;;;5094047;28;20111;-66
2020/12/18 05:41:45;;;;;;;6.68;4.00;;;;;;;;;;5093873;28;20042;-65
2020/12/18 05:44:12;;;;;;;6.35;4.03;;;;;;;;;;5093753;28;20016;-65
2020/12/18 05:46:39;;;;;;;6.15;4.22;;;;;;;;;;5094045;28;20024;-65
2020/12/18 05:49:06;;;;;;;7.32;4.10;;;;;;;;;;5093551;28;20039;-65
2020/12/18 05:51:40;;;;;;;8.50;4.65;;;;;;;;;;5093563;28;20028;-65
2020/12/18 05:54:10;;;;;;;6.88;4.55;;;;;;;;;;5092360;28;20388;-65
2020/12/18 05:56:37;;;;;;;8.85;4.47;;;;;;;;;;5092355;28;20371;-66
2020/12/18 05:59:07;;;;;;;8.68;5.28;;;;;;;;;;5092241;28;20085;-67
2020/12/18 06:01:33;;;;;;;8.70;5.88;;;;;;;;;;5093398;28;20027;-66
2020/12/18 06:04:09;;;;;;;12.02;7.63;;;;;;;;;;5093365;28;20028;-66
2020/12/18 06:06:35;;;;;;;12.43;7.80;;;;;;;;;;5093539;28;20008;-66
2020/12/18 06:09:02;;;;;;;12.43;7.78;;;;;;;;;;5093371;28;20127;-64
2020/12/18 06:11:31;;;;;;;12.02;6.35;;;;;;;;;;5093118;28;20074;-66
2020/12/18 06:13:59;;;;;;;18.38;8.65;;;;;;;;;;5093223;28;20071;-66
2020/12/18 06:16:35;;;;;;;12.68;8.80;;;;;;;;;;5091900;28;20645;-66
2020/12/18 06:19:06;;;;;;;13.55;10.95;;;;;;;;;;5093202;28;20107;-65
2020/12/18 06:21:32;;;;;;;15.32;10.05;;;;;;;;;;5092735;28;20020;-65
2020/12/18 06:23:58;;;;;;;14.68;7.97;;;;;;;;;;5093367;28;20031;-66
2020/12/18 06:26:25;;;;;;;14.48;7.07;;;;;;;;;;5093095;28;20035;-65
2020/12/18 06:28:51;;;;;;;13.80;6.32;;;;;;;;;;5092929;28;20386;-65
2020/12/18 06:31:23;;;;;;;8.90;5.75;;;;;;;;;;5092557;28;20093;-62
2020/12/18 06:33:54;;;;;;;11.70;6.95;;;;;;;;;;5092828;28;20165;-65
2020/12/18 06:36:39;;;;;;;10.77;7.32;;;;;;;;;;5091570;28;20016;-66
2020/12/18 06:39:19;;;;;;;13.82;6.95;;;;;;;;;;5092684;28;20023;-66
2020/12/18 06:41:46;;;;;;;12.18;5.60;;;;;;;;;;5092674;28;20024;-67
2020/12/18 06:44:30;;;;;;;12.45;5.10;;;;;;;;;;5092960;28;20013;-67
2020/12/18 06:47:06;;;;;;;11.05;6.05;;;;;;;;;;5094677;28;20443;-67
2020/12/18 06:49:50;;;;;;;8.93;6.35;;;;;;;;;;5093756;28;20016;-66
2020/12/18 06:52:36;;;;;;;11.23;5.50;;;;;;;;;;5092581;28;20040;-66
2020/12/18 06:55:02;;;;;;;10.10;6.07;;;;;;;;;;5092768;28;20108;-66
2020/12/18 06:57:28;;;;;;;13.18;5.90;;;;;;;;;;5092765;28;20027;-71
2020/12/18 07:00:30;;;;;;;10.77;5.35;;;;;;;;;;5091129;28;20028;-67
2020/12/18 07:02:57;;;;;;;12.13;6.03;;;;;;;;;;5010472;28;20564;-69
2020/12/18 07:05:36;;;;;;;17.17;7.40;;;;;;;;;;5076095;28;20444;-70
2020/12/18 07:08:07;;;;;;;15.07;6.68;;;;;;;;;;5090757;28;20024;-69
2020/12/18 07:10:43;;;;;;;14.38;7.40;;;;;;;;;;5092464;28;20119;-70
2020/12/18 07:13:13;;;;;;;16.08;9.38;;;;;;;;;;5091478;28;20032;-68
2020/12/18 07:15:45;;;;;;;18.10;10.73;;;;;;;;;;5092639;28;20028;-67
2020/12/18 07:18:21;;;;;;;15.35;8.80;;;;;;;;;;5093184;28;20024;-69
2020/12/18 07:20:49;;;;;;;24.75;11.77;;;;;;;;;;5092872;28;20103;-68
2020/12/18 07:23:15;;;;;;;23.58;11.50;;;;;;;;;;5092265;28;20024;-68
2020/12/18 07:25:41;;;;;;;26.80;12.57;;;;;;;;;;5090326;28;20020;-68
2020/12/18 07:28:07;;;;;;;32.35;16.83;;;;;;;;;;5090418;28;20031;-67
2020/12/18 07:30:37;;;;;;;33.53;15.52;;;;;;;;;;5090547;28;20395;-67
2020/12/18 07:33:03;;;;;;;24.05;12.73;;;;;;;;;;5093914;28;20024;-68
2020/12/18 07:35:29;;;;;;;20.52;10.77;;;;;;;;;;5094620;28;20058;-69
2020/12/18 07:37:55;;;;;;;20.35;9.80;;;;;;;;;;5095753;28;20024;-67
2020/12/18 07:40:21;;;;;;;21.27;9.05;;;;;;;;;;5094678;28;20064;-67
2020/12/18 07:42:47;;;;;;;23.25;9.15;;;;;;;;;;5096278;28;20067;-67
2020/12/18 07:45:14;;;;;;;18.00;8.60;;;;;;;;;;5096099;28;20082;-67
2020/12/18 07:47:40;;;;;;;19.08;8.70;;;;;;;;;;5095993;28;20032;-67
2020/12/18 07:50:08;;;;;;;19.95;8.70;;;;;;;;;;5094674;28;20345;-66
2020/12/18 07:52:35;;;;;;;22.55;9.20;;;;;;;;;;5095996;28;20411;-67
2020/12/18 07:55:01;;;;;;;51.80;19.52;;;;;;;;;;5095855;28;20023;-68
2020/12/18 07:57:27;;;;;;;59.00;18.20;;;;;;;;;;5095850;28;20439;-68
2020/12/18 08:00:13;;;;;;;44.72;15.20;;;;;;;;;;5095755;28;20494;-68
2020/12/18 08:02:40;;;;;;;47.05;14.30;;;;;;;;;;5097084;28;20119;-69
2020/12/18 08:05:07;;;;;;;113.32;23.65;;;;;;;;;;5096827;28;20028;-68
2020/12/18 08:07:33;;;;;;;118.18;26.40;;;;;;;;;;5095823;28;20016;-69
2020/12/18 08:10:00;;;;;;;87.82;21.17;;;;;;;;;;5094845;28;20086;-70
2020/12/18 08:12:28;;;;;;;110.25;25.50;;;;;;;;;;5096044;28;20048;-70
2020/12/18 08:15:07;;;;;;;108.37;30.37;;;;;;;;;;5095730;28;20028;-69
2020/12/18 08:17:34;;;;;;;67.60;21.45;;;;;;;;;;5095563;28;20035;-69
2020/12/18 08:20:01;;;;;;;73.22;19.52;;;;;;;;;;5095365;28;20395;-70
2020/12/18 08:22:32;;;;;;;41.80;14.85;;;;;;;;;;5094960;28;20027;-69
2020/12/18 08:24:59;;;;;;;33.00;13.40;;;;;;;;;;5095615;28;20031;-69
2020/12/18 08:27:26;;;;;;;30.02;13.15;;;;;;;;;;5095800;28;20420;-67
2020/12/18 08:29:53;;;;;;;36.13;14.23;;;;;;;;;;5095372;28;20031;-67
2020/12/18 08:32:30;;;;;;;31.95;13.38;;;;;;;;;;5095751;28;20391;-69
2020/12/18 08:35:00;;;;;;;33.25;14.38;;;;;;;;;;5096008;28;20031;-69
2020/12/18 08:37:27;;;;;;;30.45;14.18;;;;;;;;;;5095399;28;20031;-68
2020/12/18 08:39:53;;;;;;;33.72;16.52;;;;;;;;;;5095374;28;20024;-68
2020/12/18 08:42:19;;;;;;;33.80;18.02;;;;;;;;;;5095232;28;20100;-69
2020/12/18 08:44:45;;;;;;;37.92;19.80;;;;;;;;;;5094733;28;20012;-68
2020/12/18 08:47:32;;;;;;;39.17;19.40;;;;;;;;;;5095120;28;20032;-68
2020/12/18 08:49:59;;;;;;;28.48;16.67;;;;;;;;;;5095508;28;20027;-68
2020/12/18 08:52:29;;;;;;;30.08;14.43;;;;;;;;;;5093458;28;20365;-69
2020/12/18 08:55:06;;;;;;;31.67;14.65;;;;;;;;;;5094818;28;20028;-69
2020/12/18 08:57:33;;;;;;;30.75;14.40;;;;;;;;;;5094311;28;20042;-68
2020/12/18 09:00:02;;;;;;;27.67;13.10;;;;;;;;;;5094653;28;20495;-69
2020/12/18 09:02:29;;;;;;;27.98;13.20;;;;;;;;;;5094522;28;20073;-71
2020/12/18 09:05:07;;;;;;;19.63;10.70;;;;;;;;;;5093685;28;20387;-67
2020/12/18 09:07:44;;;;;;;20.67;8.52;;;;;;;;;;5094623;28;20032;-67
2020/12/18 09:10:11;;;;;;;17.02;9.75;;;;;;;;;;5094253;28;20093;-66
2020/12/18 09:12:43;;;;;;;16.70;8.05;;;;;;;;;;5094376;28;20098;-68
2020/12/18 09:15:23;;;;;;;16.98;8.35;;;;;;;;;;5093408;28;20149;-67
2020/12/18 09:18:03;;;;;;;12.90;7.88;;;;;;;;;;5095649;28;20091;-66
2020/12/18 09:20:30;;;;;;;17.23;9.43;;;;;;;;;;5097435;28;20028;-67
2020/12/18 09:23:01;;;;;;;17.88;7.82;;;;;;;;;;5091547;28;20020;-65
2020/12/18 09:25:27;;;;;;;15.27;7.53;;;;;;;;;;5093107;28;20028;-65
2020/12/18 09:27:54;;;;;;;14.98;7.50;;;;;;;;;;5092906;28;20028;-66
2020/12/18 09:30:21;;;;;;;17.80;8.30;;;;;;;;;;5093372;28;20050;-67
2020/12/18 09:32:47;;;;;;;19.27;9.82;;;;;;;;;;5093412;28;20511;-67
2020/12/18 09:35:13;;;;;;;15.50;8.18;;;;;;;;;;5093571;28;20028;-68
2020/12/18 09:37:39;;;;;;;15.82;6.95;;;;;;;;;;5092545;28;20024;-66
2020/12/18 09:40:05;;;;;;;18.10;7.07;;;;;;;;;;5092705;28;20078;-67
2020/12/18 09:42:31;;;;;;;16.40;7.68;;;;;;;;;;5091891;28;20024;-66
2020/12/18 09:44:58;;;;;;;35.20;20.52;;;;;;;;;;5093304;28;20024;-68
2020/12/18 09:47:24;;;;;;;36.33;19.83;;;;;;;;;;5092286;28;20035;-65
2020/12/18 09:49:50;;;;;;;48.60;26.52;;;;;;;;;;5093011;28;20043;-66
2020/12/18 09:52:16;;;;;;;31.42;16.35;;;;;;;;;;5093135;28;20040;-68
2020/12/18 09:54:42;;;;;;;23.98;12.00;;;;;;;;;;5092849;28;20115;-69
2020/12/18 09:57:08;;;;;;;24.85;11.23;;;;;;;;;;5093538;28;20047;-66
2020/12/18 09:59:34;;;;;;;22.08;11.45;;;;;;;;;;5092021;28;20020;-67
2020/12/18 10:02:01;;;;;;;20.08;11.73;;;;;;;;;;5093427;28;20028;-67
2020/12/18 10:04:27;;;;;;;22.08;10.77;;;;;;;;;;5093340;28;20447;-70
2020/12/18 10:06:53;;;;;;;18.30;10.15;;;;;;;;;;5093447;28;20028;-69
2020/12/18 10:09:19;;;;;;;18.35;9.13;;;;;;;;;;5093058;28;20051;-69
2020/12/18 10:11:45;;;;;;;18.35;8.32;;;;;;;;;;5091824;28;20097;-67
2020/12/18 10:14:11;;;;;;;17.80;8.85;;;;;;;;;;5093185;28;20022;-69
2020/12/18 10:16:37;;;;;;;19.25;10.90;;;;;;;;;;5093338;28;20028;-72
2020/12/18 10:19:03;;;;;;;25.27;11.95;;;;;;;;;;5093550;28;20024;-71
2020/12/18 10:21:31;;;;;;;35.20;18.10;;;;;;;;;;5093244;28;20038;-64
2020/12/18 10:23:57;;;;;;;34.35;18.13;;;;;;;;;;5093010;28;20016;-63
2020/12/18 10:26:23;;;;;;;33.03;17.95;;;;;;;;;;5092998;28;20060;-64
2020/12/18 10:28:49;;;;;;;30.15;16.20;;;;;;;;;;5092853;28;20708;-63
2020/12/18 10:31:15;;;;;;;29.20;16.95;;;;;;;;;;5092741;28;20036;-65
2020/12/18 10:33:41;;;;;;;27.30;15.50;;;;;;;;;;5093168;28;20683;-64
2020/12/18 10:36:07;;;;;;;23.65;13.43;;;;;;;;;;5094534;28;20032;-63
2020/12/18 10:38:33;;;;;;;27.05;13.32;;;;;;;;;;5091660;28;20028;-61
2020/12/18 10:41:00;;;;;;;25.25;12.38;;;;;;;;;;5092880;28;20060;-61
2020/12/18 10:43:26;;;;;;;19.67;11.27;;;;;;;;;;5089888;28;20024;-63
2020/12/18 10:45:52;;;;;;;20.42;12.63;;;;;;;;;;5089313;28;20024;-65
2020/12/18 10:48:18;;;;;;;24.02;12.75;;;;;;;;;;5090366;28;20028;-64
2020/12/18 10:50:45;;;;;;;27.50;15.88;;;;;;;;;;5090656;28;20119;-64
2020/12/18 10:53:11;;;;;;;31.90;17.40;;;;;;;;;;5091156;28;20032;-64
2020/12/18 10:55:37;;;;;;;30.42;15.52;;;;;;;;;;5092091;28;20025;-63
2020/12/18 10:58:03;;;;;;;27.52;12.85;;;;;;;;;;5091909;28;20028;-63
2020/12/18 11:00:29;;;;;;;24.13;12.43;;;;;;;;;;5092064;28;20051;-63
2020/12/18 11:02:55;;;;;;;20.40;12.18;;;;;;;;;;5092055;28;20080;-62
2020/12/18 11:05:21;;;;;;;26.83;18.77;;;;;;;;;;5091758;28;20055;-64
2020/12/18 11:07:47;;;;;;;33.00;20.77;;;;;;;;;;5091735;28;20020;-66
2020/12/18 11:10:13;;;;;;;30.33;19.90;;;;;;;;;;5090579;28;20063;-63
2020/12/18 11:12:39;;;;;;;41.17;24.13;;;;;;;;;;5091759;28;20028;-65
2020/12/18 11:15:05;;;;;;;31.90;19.02;;;;;;;;;;5091313;28;20470;-64
2020/12/18 11:17:31;;;;;;;32.47;19.02;;;;;;;;;;5091321;28;20027;-65
2020/12/18 11:19:57;;;;;;;28.35;17.80;;;;;;;;;;5090328;28;20035;-65
2020/12/18 11:22:29;;;;;;;28.83;14.88;;;;;;;;;;5091799;28;20111;-64
2020/12/18 11:24:56;;;;;;;32.20;15.35;;;;;;;;;;5090505;28;20020;-63
2020/12/18 11:27:22;;;;;;;28.08;14.65;;;;;;;;;;5090236;28;20109;-63
2020/12/18 11:29:48;;;;;;;33.20;17.25;;;;;;;;;;5091795;28;20472;-62
2020/12/18 11:32:16;;;;;;;33.53;16.13;;;;;;;;;;5091722;28;20123;-63
2020/12/18 11:34:42;;;;;;;38.50;19.05;;;;;;;;;;5091875;28;20577;-62
2020/12/18 11:37:09;;;;;;;35.65;18.65;;;;;;;;;;5091689;28;20063;-62
2020/12/18 11:39:35;;;;;;;35.22;17.98;;;;;;;;;;5091714;28;20099;-62
2020/12/18 11:42:01;;;;;;;37.75;17.67;;;;;;;;;;5091698;28;20028;-62
2020/12/18 11:44:27;;;;;;;38.67;19.27;;;;;;;;;;5091581;28;20471;-62
2020/12/18 11:46:53;;;;;;;35.95;18.00;;;;;;;;;;5091310;28;20383;-62
2020/12/18 11:49:20;;;;;;;39.20;19.83;;;;;;;;;;5091652;28;20032;-65
2020/12/18 11:51:46;;;;;;;38.30;19.58;;;;;;;;;;5092359;28;20032;-61
2020/12/18 11:54:12;;;;;;;40.97;20.67;;;;;;;;;;5092661;28;20034;-63
2020/12/18 11:56:38;;;;;;;44.88;22.42;;;;;;;;;;5090269;28;20020;-62
2020/12/18 11:59:04;;;;;;;42.70;21.08;;;;;;;;;;5089836;28;20132;-62
2020/12/18 12:01:30;;;;;;;44.33;21.92;;;;;;;;;;5091477;28;20024;-61
2020/12/18 12:03:56;;;;;;;51.35;24.38;;;;;;;;;;5091489;28;20043;-72
2020/12/18 12:06:22;;;;;;;47.70;24.20;;;;;;;;;;5090822;28;20487;-72
2020/12/18 12:08:50;;;;;;;48.67;22.08;;;;;;;;;;5090128;28;20480;-72
2020/12/18 12:11:16;;;;;;;44.90;23.17;;;;;;;;;;5090986;28;20123;-73
2020/12/18 12:13:45;;;;;;;48.70;22.73;;;;;;;;;;5090395;28;20050;-70
2020/12/18 12:16:14;;;;;;;39.63;21.30;;;;;;;;;;5091507;28;20475;-72
2020/12/18 12:18:40;;;;;;;43.00;20.17;;;;;;;;;;5093014;28;20459;-70
2020/12/18 12:21:06;;;;;;;38.63;20.02;;;;;;;;;;5096099;28;20039;-71
2020/12/18 12:23:32;;;;;;;43.30;19.02;;;;;;;;;;5095094;28;20089;-71
2020/12/18 12:25:58;;;;;;;35.78;18.80;;;;;;;;;;5094102;28;20038;-72
2020/12/18 12:28:25;;;;;;;37.35;16.52;;;;;;;;;;5094970;28;20070;-69
2020/12/18 12:30:51;;;;;;;32.28;16.33;;;;;;;;;;5092831;28;20039;-68
2020/12/18 12:33:17;;;;;;;37.35;17.58;;;;;;;;;;5094803;28;20106;-69
2020/12/18 12:35:43;;;;;;;37.63;17.77;;;;;;;;;;5093858;28;20031;-72
2020/12/18 12:38:10;;;;;;;39.10;17.60;;;;;;;;;;5094307;28;20073;-72
2020/12/18 12:40:36;;;;;;;34.03;17.67;;;;;;;;;;5093902;28;20468;-72
2020/12/18 12:43:02;;;;;;;36.13;16.08;;;;;;;;;;5095336;28;20024;-71
2020/12/18 12:45:28;;;;;;;27.98;15.23;;;;;;;;;;5094880;28;20031;-70
2020/12/18 12:47:54;;;;;;;31.42;15.98;;;;;;;;;;5096312;28;20468;-72
2020/12/18 12:50:20;;;;;;;28.70;14.85;;;;;;;;;;5096236;28;20016;-72
2020/12/18 12:52:46;;;;;;;31.95;17.48;;;;;;;;;;5096805;28;20365;-73
2020/12/18 12:55:12;;;;;;;29.00;15.68;;;;;;;;;;5099708;28;20032;-73
2020/12/18 12:57:38;;;;;;;31.92;17.38;;;;;;;;;;5101088;28;20071;-70
2020/12/18 13:00:04;;;;;;;26.73;15.25;;;;;;;;;;5093762;28;20502;-73
2020/12/18 13:02:31;;;;;;;27.80;15.95;;;;;;;;;;5094292;28;20008;-70
2020/12/18 13:04:57;;;;;;;28.33;13.88;;;;;;;;;;5094672;28;20099;-70
2020/12/18 13:07:23;;;;;;;27.15;14.63;;;;;;;;;;5097288;28;20520;-70
2020/12/18 13:09:49;;;;;;;24.95;14.48;;;;;;;;;;5107023;28;20145;-69
2020/12/18 13:12:15;;;;;;;25.67;14.52;;;;;;;;;;5095325;28;20039;-68
2020/12/18 13:14:43;;;;;;;26.20;15.25;;;;;;;;;;5094254;28;20052;-72
2020/12/18 13:17:09;;;;;;;28.13;15.75;;;;;;;;;;5093908;28;20024;-70
2020/12/18 13:19:35;;;;;;;25.67;15.23;;;;;;;;;;5093160;28;20024;-70
2020/12/18 13:22:05;;;;;;;25.02;15.90;;;;;;;;;;5092496;28;20103;-70
2020/12/18 13:24:31;;;;;;;27.58;16.92;;;;;;;;;;5093759;28;20109;-70
2020/12/18 13:26:57;;;;;;;26.60;15.77;;;;;;;;;;5093079;28;20032;-71
2020/12/18 13:29:23;;;;;;;26.42;15.75;;;;;;;;;;5094285;28;20032;-71
2020/12/18 13:31:50;;;;;;;28.30;16.30;;;;;;;;;;5094447;28;20031;-72
2020/12/18 13:34:16;;;;;;;28.70;16.90;;;;;;;;;;5093235;28;20047;-71
2020/12/18 13:36:42;;;;;;;28.00;16.35;;;;;;;;;;5094138;28;20027;-71
2020/12/18 13:39:09;;;;;;;29.88;16.20;;;;;;;;;;5094195;28;20016;-70
2020/12/18 13:41:35;;;;;;;25.40;14.00;;;;;;;;;;5093842;28;20471;-70
2020/12/18 13:44:01;;;;;;;27.70;16.45;;;;;;;;;;5093850;28;20035;-69
2020/12/18 13:46:27;;;;;;;33.00;19.90;;;;;;;;;;5093497;28;20020;-70
2020/12/18 13:48:53;;;;;;;50.88;34.25;;;;;;;;;;5092992;28;20024;-71
2020/12/18 13:51:19;;;;;;;39.17;26.75;;;;;;;;;;5093548;28;20040;-70
2020/12/18 13:53:45;;;;;;;36.75;23.45;;;;;;;;;;5092400;28;20532;-70
2020/12/18 13:56:12;;;;;;;37.53;21.52;;;;;;;;;;5093620;28;20043;-70
2020/12/18 13:58:38;;;;;;;31.77;18.98;;;;;;;;;;5093743;28;20024;-70
2020/12/18 14:01:04;;;;;;;30.60;17.85;;;;;;;;;;5092447;28;20031;-69
2020/12/18 14:03:30;;;;;;;27.25;14.10;;;;;;;;;;5093737;28;20379;-70
2020/12/18 14:05:57;;;;;;;28.80;16.85;;;;;;;;;;5092659;28;20024;-71
2020/12/18 14:08:23;;;;;;;33.70;17.60;;;;;;;;;;5093929;28;20024;-72
2020/12/18 14:10:49;;;;;;;192.98;78.82;;;;;;;;;;5093495;28;20360;-71
2020/12/18 14:13:15;;;;;;;29.02;16.55;;;;;;;;;;5092242;28;20028;-70
2020/12/18 14:15:41;;;;;;;30.65;17.98;;;;;;;;;;5093640;28;20020;-70
2020/12/18 14:18:07;;;;;;;31.00;17.40;;;;;;;;;;5093592;28;20085;-71
2020/12/18 14:20:33;;;;;;;28.17;15.88;;;;;;;;;;5093190;28;20036;-70
2020/12/18 14:22:59;;;;;;;29.98;17.85;;;;;;;;;;5093392;28;20102;-70
2020/12/18 14:25:26;;;;;;;30.23;17.75;;;;;;;;;;5095752;28;20506;-74
2020/12/18 14:27:52;;;;;;;29.30;17.63;;;;;;;;;;5094825;28;20025;-73
2020/12/18 14:30:18;;;;;;;29.50;17.85;;;;;;;;;;5093113;28;20024;-71
2020/12/18 14:32:44;;;;;;;30.10;18.08;;;;;;;;;;5092776;28;20480;-65